Time;durP1;ratioP1;P1;durP2;ratioP2;P2;SDS_P1;SDS_P2;PMS_P1;PMS_P2;Temp;Humidity;BMP_temperature;BMP_pressure;BME280_temperature;BME280_humidity;BME280_pressure;Samples;Min_cycle;Max_cycle;Signal;HPM_P1;HPM_P2
2021/12/17 00:05:04;;;;;;;3.63;2.15;;;20.60;48.70;;;;;;6270824;28;20024;-65
2021/12/17 00:08:05;;;;;;;3.72;2.35;;;20.60;48.70;;;;;;6269512;28;20485;-68
2021/12/17 00:11:06;;;;;;;2.80;1.80;;;20.60;48.70;;;;;;6270128;28;20041;-66
2021/12/17 00:14:08;;;;;;;3.53;2.08;;;20.60;48.70;;;;;;6249788;28;20461;-65
2021/12/17 00:17:13;;;;;;;3.15;2.10;;;20.60;48.70;;;;;;6245538;28;20144;-65
2021/12/17 00:20:38;;;;;;;4.13;2.55;;;20.60;48.70;;;;;;6257248;28;20018;-65
2021/12/17 00:53:24;;;;;;;3.53;1.98;;;20.60;48.80;;;;;;6262052;28;20490;-65
2021/12/17 00:56:26;;;;;;;4.38;2.13;;;20.60;48.80;;;;;;6267825;28;20112;-65
2021/12/17 00:59:27;;;;;;;3.03;2.00;;;20.60;48.80;;;;;;6244515;28;20041;-65
2021/12/17 01:02:32;;;;;;;3.58;2.15;;;20.60;48.80;;;;;;6253397;28;20032;-65
2021/12/17 01:05:32;;;;;;;4.10;2.13;;;20.60;48.80;;;;;;6219287;28;20022;-65
2021/12/17 01:08:33;;;;;;;3.20;2.20;;;20.60;48.80;;;;;;6232026;28;20818;-65
2021/12/17 01:11:34;;;;;;;2.85;1.95;;;20.60;48.90;;;;;;6244271;28;20029;-65
2021/12/17 01:14:36;;;;;;;3.45;2.15;;;20.60;48.80;;;;;;6265568;28;20052;-65
2021/12/17 01:17:40;;;;;;;3.53;2.25;;;20.60;48.80;;;;;;6268438;28;20549;-66
2021/12/17 01:24:03;;;;;;;4.18;2.45;;;20.60;48.80;;;;;;6256482;28;20394;-65
2021/12/17 01:37:48;;;;;;;2.80;2.10;;;20.60;48.80;;;;;;6253169;28;20054;-65
2021/12/17 01:43:49;;;;;;;3.63;2.00;;;20.60;48.80;;;;;;6267763;28;20021;-68
2021/12/17 01:46:52;;;;;;;3.13;2.00;;;20.60;48.80;;;;;;6267704;28;20263;-66
2021/12/17 01:59:37;;;;;;;3.10;1.77;;;20.60;48.80;;;;;;6268012;28;20067;-67
2021/12/17 02:02:44;;;;;;;2.83;1.88;;;20.60;48.90;;;;;;6267888;28;20437;-68
2021/12/17 02:05:45;;;;;;;3.90;2.05;;;20.60;48.90;;;;;;6266164;28;20454;-67
2021/12/17 02:08:47;;;;;;;3.10;1.90;;;20.60;48.90;;;;;;6265947;28;20501;-67
2021/12/17 02:12:17;;;;;;;2.78;1.92;;;20.60;48.90;;;;;;6267173;28;20078;-67
2021/12/17 02:22:07;;;;;;;2.35;1.75;;;20.60;48.80;;;;;;6218259;28;20037;-67
2021/12/17 02:28:47;;;;;;;3.17;1.50;;;20.60;48.80;;;;;;6264891;28;20028;-67
2021/12/17 02:31:54;;;;;;;2.95;1.98;;;20.60;48.80;;;;;;6259493;28;20017;-68
2021/12/17 02:35:12;;;;;;;3.47;1.60;;;20.60;48.80;;;;;;6268002;28;20466;-67
2021/12/17 02:38:16;;;;;;;2.75;1.90;;;20.60;48.80;;;;;;6266545;28;20025;-67
2021/12/17 02:48:22;;;;;;;6.82;2.30;;;20.60;48.80;;;;;;6266951;28;20033;-67
2021/12/17 02:51:23;;;;;;;3.00;2.00;;;20.60;48.90;;;;;;6221414;28;20048;-67
2021/12/17 02:54:26;;;;;;;3.92;2.30;;;20.60;48.90;;;;;;6267079;28;20029;-67
2021/12/17 02:57:27;;;;;;;3.25;2.20;;;20.60;48.80;;;;;;6262364;28;20026;-67
2021/12/17 03:00:29;;;;;;;3.30;1.92;;;20.60;48.90;;;;;;6247657;28;20364;-67
2021/12/17 03:03:32;;;;;;;3.75;1.77;;;20.60;48.80;;;;;;6264305;28;20033;-67
2021/12/17 03:06:33;;;;;;;4.97;2.00;;;20.60;48.90;;;;;;6271721;28;20029;-67
2021/12/17 03:13:00;;;;;;;3.38;2.38;;;20.60;48.90;;;;;;6271420;28;20478;-68
2021/12/17 03:16:56;;;;;;;3.40;2.13;;;20.60;48.80;;;;;;6271665;28;20430;-67
2021/12/17 03:26:15;;;;;;;3.65;2.10;;;20.60;48.80;;;;;;6262784;28;20025;-67
2021/12/17 03:29:16;;;;;;;3.90;1.90;;;20.60;48.90;;;;;;6271139;28;20225;-68
2021/12/17 03:32:17;;;;;;;3.60;2.20;;;20.60;48.90;;;;;;6259595;28;20086;-67
2021/12/17 03:35:18;;;;;;;3.78;1.90;;;20.60;48.90;;;;;;6246868;28;20029;-67
2021/12/17 03:38:19;;;;;;;2.60;1.63;;;20.60;48.80;;;;;;6244699;28;20045;-67
2021/12/17 03:41:23;;;;;;;5.72;2.42;;;20.60;48.90;;;;;;6246264;28;20037;-67
2021/12/17 03:44:25;;;;;;;2.50;1.60;;;20.60;49.50;;;;;;6246425;28;20049;-67
2021/12/17 03:47:27;;;;;;;4.30;2.00;;;20.60;48.90;;;;;;6255747;28;20025;-67
2021/12/17 03:50:33;;;;;;;2.70;1.98;;;20.60;48.80;;;;;;6248935;28;20116;-68
2021/12/17 03:53:33;;;;;;;3.72;1.77;;;20.60;48.80;;;;;;6264966;28;20474;-68
2021/12/17 03:56:35;;;;;;;4.18;1.88;;;20.60;48.90;;;;;;6270899;28;20031;-66
2021/12/17 04:03:33;;;;;;;3.25;2.00;;;20.60;48.90;;;;;;6253308;28;20116;-67
2021/12/17 04:06:34;;;;;;;3.97;1.90;;;20.60;48.90;;;;;;6245017;28;20071;-67
2021/12/17 04:09:35;;;;;;;3.50;2.10;;;20.60;48.90;;;;;;6243830;28;20490;-67
2021/12/17 04:12:50;;;;;;;3.63;2.10;;;20.60;48.90;;;;;;6266746;28;20528;-65
2021/12/17 04:16:01;;;;;;;4.25;2.22;;;20.60;48.80;;;;;;6270575;28;20132;-65
2021/12/17 04:19:02;;;;;;;2.58;1.63;;;20.60;48.90;;;;;;6265971;28;20457;-68
2021/12/17 04:22:04;;;;;;;2.33;1.70;;;20.60;48.90;;;;;;6245403;28;20032;-67
2021/12/17 04:25:05;;;;;;;2.55;1.73;;;20.60;48.90;;;;;;6249256;28;20096;-67
2021/12/17 04:28:06;;;;;;;3.08;1.60;;;20.60;49.00;;;;;;6270048;28;20032;-67
2021/12/17 04:31:51;;;;;;;2.75;1.70;;;20.50;48.80;;;;;;6270215;28;20482;-67
2021/12/17 04:34:53;;;;;;;3.20;1.92;;;20.50;48.80;;;;;;6269779;28;20052;-67
2021/12/17 04:37:54;;;;;;;2.97;1.60;;;20.50;48.80;;;;;;6269615;28;20420;-68
2021/12/17 04:40:59;;;;;;;2.58;1.60;;;20.60;48.90;;;;;;6270090;28;20071;-67
2021/12/17 04:44:16;;;;;;;2.63;1.70;;;20.50;48.80;;;;;;6269753;28;20124;-67
2021/12/17 05:00:20;;;;;;;4.78;2.05;;;20.50;48.80;;;;;;6269036;28;20116;-66
2021/12/17 05:03:21;;;;;;;;;;;20.50;48.80;;;;;;6269450;28;20151;-66
2021/12/17 05:06:28;;;;;;;1.92;1.48;;;20.50;48.80;;;;;;6268910;28;19904;-66
2021/12/17 05:10:09;;;;;;;4.25;2.00;;;20.50;48.80;;;;;;6269072;28;20052;-66
2021/12/17 05:19:49;;;;;;;2.55;1.70;;;20.60;48.90;;;;;;6250247;28;20434;-67
2021/12/17 05:22:55;;;;;;;2.42;1.42;;;20.50;48.70;;;;;;6252142;28;20482;-67
2021/12/17 05:25:59;;;;;;;3.65;1.80;;;20.50;48.80;;;;;;6268554;28;20486;-67
2021/12/17 05:28:59;;;;;;;4.18;1.83;;;20.50;48.70;;;;;;6268708;28;20320;-65
2021/12/17 05:32:00;;;;;;;3.58;1.73;;;20.50;48.70;;;;;;6259325;28;20039;-65
2021/12/17 05:35:01;;;;;;;2.03;1.60;;;20.50;48.70;;;;;;6244123;28;20471;-65
2021/12/17 05:38:02;;;;;;;2.35;1.90;;;20.50;48.70;;;;;;6260699;28;20031;-65
2021/12/17 05:41:03;;;;;;;2.63;1.65;;;20.50;48.80;;;;;;6268639;28;20451;-65
2021/12/17 05:44:04;;;;;;;2.53;1.60;;;20.60;48.80;;;;;;6266867;28;20028;-65
2021/12/17 05:47:04;;;;;;;3.50;1.90;;;20.60;48.90;;;;;;6268085;28;20021;-65
2021/12/17 05:50:06;;;;;;;3.90;2.30;;;20.60;48.90;;;;;;6268200;28;20076;-65
2021/12/17 05:53:07;;;;;;;2.60;1.80;;;20.60;48.90;;;;;;6268344;28;20021;-66
2021/12/17 05:56:08;;;;;;;3.25;1.70;;;20.50;48.80;;;;;;6267892;28;20114;-65
2021/12/17 05:59:09;;;;;;;3.42;1.83;;;20.60;48.90;;;;;;6266625;28;20017;-65
2021/12/17 06:02:10;;;;;;;3.45;1.80;;;20.60;48.90;;;;;;6251030;28;20032;-65
2021/12/17 06:05:11;;;;;;;4.13;2.33;;;20.60;48.80;;;;;;6243366;28;20021;-66
2021/12/17 06:08:12;;;;;;;3.45;1.95;;;20.60;48.80;;;;;;6254576;28;20071;-66
2021/12/17 06:11:13;;;;;;;4.35;2.00;;;20.60;49.50;;;;;;6268051;28;20092;-65
2021/12/17 06:14:13;;;;;;;2.95;1.73;;;20.60;49.50;;;;;;6247425;28;20065;-65
2021/12/17 06:17:14;;;;;;;2.63;1.70;;;20.60;48.90;;;;;;6243801;28;20045;-65
2021/12/17 06:20:16;;;;;;;2.22;1.70;;;20.60;48.90;;;;;;6254884;28;20393;-66
2021/12/17 06:23:17;;;;;;;3.08;1.85;;;20.60;48.90;;;;;;6243194;28;20021;-67
2021/12/17 06:26:18;;;;;;;2.30;1.50;;;20.60;49.00;;;;;;6247564;28;20017;-65
2021/12/17 06:29:19;;;;;;;2.15;1.70;;;20.60;48.90;;;;;;6267287;28;20033;-66
2021/12/17 06:32:20;;;;;;;2.75;1.75;;;20.60;48.90;;;;;;6255590;28;20026;-66
2021/12/17 06:35:21;;;;;;;3.38;1.50;;;20.60;48.90;;;;;;6242429;28;20026;-66
2021/12/17 06:38:24;;;;;;;4.20;2.03;;;20.60;49.50;;;;;;6262784;28;20025;-66
2021/12/17 06:41:25;;;;;;;3.70;1.90;;;20.60;48.80;;;;;;6265808;28;20040;-66
2021/12/17 06:44:26;;;;;;;2.90;1.52;;;20.60;48.90;;;;;;6235642;28;20022;-66
2021/12/17 06:47:33;;;;;;;9.07;2.75;;;20.60;48.90;;;;;;6241921;28;20402;-65
2021/12/17 06:57:59;;;;;;;4.45;2.15;;;20.60;48.10;;;;;;6260703;28;20321;-68
2021/12/17 07:00:57;;;;;;;4.53;2.10;;;20.60;48.30;;;;;;6242203;28;20033;-68
2021/12/17 07:10:41;;;;;;;6.80;2.35;;;20.60;48.30;;;;;;6239082;28;20060;-68
2021/12/17 07:33:11;;;;;;;6.15;2.83;;;20.80;48.00;;;;;;6249214;28;20079;-69
2021/12/17 07:36:17;;;;;;;9.65;2.25;;;20.80;48.10;;;;;;6264504;28;20467;-70
2021/12/17 07:39:18;;;;;;;6.68;2.28;;;20.80;48.00;;;;;;6251041;28;20091;-69
2021/12/17 07:42:19;;;;;;;6.80;2.45;;;20.80;48.00;;;;;;6257714;28;20021;-70
2021/12/17 07:45:19;;;;;;;11.13;2.58;;;20.80;48.10;;;;;;6269839;28;20052;-67
2021/12/17 07:48:21;;;;;;;8.52;2.42;;;20.80;48.10;;;;;;6270341;28;20197;-68
2021/12/17 07:51:23;;;;;;;11.63;2.63;;;20.80;48.50;;;;;;6272071;28;20021;-68
2021/12/17 07:54:24;;;;;;;8.30;2.55;;;20.80;48.20;;;;;;6268635;28;20032;-68
2021/12/17 07:57:24;;;;;;;5.18;2.00;;;20.80;48.40;;;;;;6265016;28;20025;-69
2021/12/17 08:00:25;;;;;;;13.35;2.70;;;20.80;48.60;;;;;;6271157;28;20437;-68
2021/12/17 08:03:26;;;;;;;6.45;2.70;;;20.80;48.70;;;;;;6266323;28;20029;-68
2021/12/17 08:06:27;;;;;;;10.00;1.90;;;20.80;48.90;;;;;;6245620;28;20021;-68
2021/12/17 08:09:28;;;;;;;8.20;2.22;;;20.80;48.90;;;;;;6246015;28;20028;-68
2021/12/17 08:12:29;;;;;;;6.57;2.28;;;20.80;49.00;;;;;;6251796;28;20104;-70
2021/12/17 08:15:35;;;;;;;10.30;1.90;;;20.80;49.00;;;;;;6266549;28;20053;-71
2021/12/17 08:25:13;;;;;;;6.05;1.73;;;20.80;49.20;;;;;;6270129;28;20465;-69
2021/12/17 08:28:16;;;;;;;5.82;2.00;;;20.80;49.10;;;;;;6263681;28;20060;-69
2021/12/17 08:31:17;;;;;;;24.45;3.05;;;20.80;49.20;;;;;;6245978;28;20037;-69
2021/12/17 08:34:18;;;;;;;31.23;2.88;;;20.80;49.20;;;;;;6264762;28;20478;-69
2021/12/17 08:37:19;;;;;;;34.58;3.03;;;20.80;49.20;;;;;;6271667;28;20035;-69
2021/12/17 08:40:19;;;;;;;21.30;3.22;;;20.70;49.20;;;;;;6250872;28;20026;-70
2021/12/17 08:43:21;;;;;;;13.85;2.67;;;20.70;49.20;;;;;;6265857;28;20036;-69
2021/12/17 08:46:22;;;;;;;15.15;2.47;;;20.70;49.20;;;;;;6267970;28;20144;-69
2021/12/17 08:49:23;;;;;;;7.90;2.65;;;20.70;49.10;;;;;;6259561;28;20538;-69
2021/12/17 08:52:24;;;;;;;10.50;2.20;;;20.70;49.20;;;;;;6271544;28;20021;-70
2021/12/17 08:55:24;;;;;;;7.93;2.60;;;20.70;49.30;;;;;;6271495;28;20104;-69
2021/12/17 08:58:25;;;;;;;7.97;2.25;;;20.80;49.20;;;;;;6257392;28;20032;-69
2021/12/17 09:01:25;;;;;;;9.38;2.50;;;20.80;49.20;;;;;;6270366;28;20082;-69
2021/12/17 09:04:27;;;;;;;10.82;2.30;;;20.80;49.20;;;;;;6260145;28;20029;-70
2021/12/17 09:07:28;;;;;;;4.60;1.90;;;20.80;49.20;;;;;;6254039;28;20013;-69
2021/12/17 09:10:28;;;;;;;6.07;2.05;;;20.80;49.20;;;;;;6271050;28;20163;-67
2021/12/17 09:13:29;;;;;;;5.20;1.85;;;20.70;49.10;;;;;;6270722;28;20090;-66
2021/12/17 09:16:30;;;;;;;5.50;2.28;;;20.70;49.10;;;;;;6269527;28;20029;-67
2021/12/17 09:19:31;;;;;;;4.15;1.98;;;20.70;49.10;;;;;;6260408;28;20533;-67
2021/12/17 09:22:33;;;;;;;5.75;2.28;;;20.70;49.10;;;;;;6251000;28;20028;-66
2021/12/17 09:25:34;;;;;;;3.75;1.80;;;20.70;49.90;;;;;;6262531;28;20548;-67
2021/12/17 09:28:34;;;;;;;5.45;2.35;;;20.70;49.10;;;;;;6268313;28;20025;-67
2021/12/17 09:31:36;;;;;;;4.10;2.10;;;20.70;49.10;;;;;;6252708;28;20466;-66
2021/12/17 09:34:37;;;;;;;6.47;2.17;;;20.70;49.10;;;;;;6260562;28;20033;-67
2021/12/17 09:37:39;;;;;;;4.40;2.30;;;20.70;49.10;;;;;;6268052;28;20025;-67
2021/12/17 09:40:40;;;;;;;6.60;2.65;;;20.70;49.10;;;;;;6269603;28;20390;-67
2021/12/17 09:43:41;;;;;;;2.75;1.67;;;20.70;49.10;;;;;;6255819;28;20017;-67
2021/12/17 09:46:45;;;;;;;4.55;2.03;;;20.70;49.10;;;;;;6268846;28;20017;-67
2021/12/17 09:49:45;;;;;;;4.38;1.83;;;20.70;49.10;;;;;;6269406;28;20025;-67
2021/12/17 09:52:46;;;;;;;4.38;1.88;;;20.70;49.10;;;;;;6270378;28;20052;-67
2021/12/17 09:55:47;;;;;;;4.20;1.77;;;20.70;49.10;;;;;;6268958;28;20025;-68
2021/12/17 09:58:48;;;;;;;4.70;1.90;;;20.70;49.10;;;;;;6269936;28;20029;-67
2021/12/17 10:01:49;;;;;;;6.15;2.10;;;20.70;49.10;;;;;;6270357;28;20423;-67
2021/12/17 10:04:54;;;;;;;2.75;1.52;;;20.70;49.00;;;;;;6254507;28;20038;-67
2021/12/17 10:08:02;;;;;;;3.42;1.70;;;20.70;49.00;;;;;;6244282;28;20025;-67
2021/12/17 10:11:03;;;;;;;5.43;2.30;;;20.70;49.00;;;;;;6264060;28;20052;-68
2021/12/17 10:14:22;;;;;;;3.47;1.52;;;20.70;49.10;;;;;;6269892;28;20099;-69
2021/12/17 10:17:23;;;;;;;4.00;1.70;;;20.70;49.00;;;;;;6269466;28;20032;-69
2021/12/17 10:20:24;;;;;;;3.03;1.70;;;20.70;49.10;;;;;;6266853;28;20040;-69
2021/12/17 10:23:26;;;;;;;3.08;1.73;;;20.70;49.00;;;;;;6269559;28;20029;-69
2021/12/17 10:26:28;;;;;;;3.63;1.80;;;20.70;49.10;;;;;;6269139;28;20017;-70
2021/12/17 10:29:28;;;;;;;3.58;1.88;;;20.70;49.80;;;;;;6270083;28;20033;-70
2021/12/17 10:32:29;;;;;;;4.00;1.77;;;20.70;49.00;;;;;;6258786;28;20501;-68
2021/12/17 10:35:34;;;;;;;3.67;1.67;;;20.70;49.00;;;;;;6269208;28;20063;-69
2021/12/17 10:38:35;;;;;;;5.45;2.00;;;20.70;49.00;;;;;;6254107;28;20033;-69
2021/12/17 10:41:46;;;;;;;2.35;1.50;;;20.70;49.00;;;;;;6268110;28;20037;-69
2021/12/17 10:45:00;;;;;;;3.15;1.70;;;20.70;49.00;;;;;;6269300;28;20576;-69
2021/12/17 10:54:40;;;;;;;3.97;1.60;;;20.70;49.00;;;;;;6255276;28;20109;-68
2021/12/17 10:57:43;;;;;;;2.28;1.50;;;20.70;49.00;;;;;;6255125;28;20049;-70
2021/12/17 11:00:57;;;;;;;3.45;1.70;;;20.70;49.00;;;;;;6266797;28;20108;-68
2021/12/17 11:04:16;;;;;;;2.55;1.58;;;20.70;49.00;;;;;;6248297;28;20024;-69
2021/12/17 11:07:18;;;;;;;4.75;1.98;;;20.70;49.00;;;;;;6250135;28;20021;-69
2021/12/17 11:10:31;;;;;;;9.93;1.83;;;20.70;48.50;;;;;;6268634;28;20429;-69
2021/12/17 11:13:32;;;;;;;3.35;1.80;;;20.70;48.50;;;;;;6268741;28;20554;-69
2021/12/17 11:16:36;;;;;;;3.85;1.63;;;20.70;48.60;;;;;;6271867;28;20067;-71
2021/12/17 11:19:37;;;;;;;3.28;1.45;;;20.70;48.80;;;;;;6265989;28;20021;-70
2021/12/17 11:22:39;;;;;;;5.55;2.00;;;20.70;48.70;;;;;;6248239;28;20052;-69
2021/12/17 11:25:43;;;;;;;2.63;1.40;;;20.70;48.70;;;;;;6257647;28;20109;-69
2021/12/17 11:28:46;;;;;;;3.15;1.77;;;20.70;48.60;;;;;;6273059;28;20106;-69
2021/12/17 11:31:47;;;;;;;3.92;1.70;;;20.70;48.70;;;;;;6266350;28;20068;-73
2021/12/17 11:34:48;;;;;;;2.70;1.40;;;20.70;48.60;;;;;;6270061;28;20017;-69
2021/12/17 11:37:51;;;;;;;1.92;1.30;;;20.70;48.60;;;;;;6257094;28;20072;-69
2021/12/17 11:41:19;;;;;;;2.88;1.67;;;20.70;48.60;;;;;;6247067;28;20434;-69
2021/12/17 11:44:26;;;;;;;3.28;1.60;;;20.70;48.60;;;;;;6248502;28;20582;-69
2021/12/17 11:47:34;;;;;;;6.47;2.15;;;20.70;48.60;;;;;;6272573;28;20017;-69
2021/12/17 11:50:34;;;;;;;3.05;1.70;;;20.70;48.60;;;;;;6272197;28;20057;-69
2021/12/17 11:54:00;;;;;;;2.22;1.27;;;20.70;48.60;;;;;;6272770;28;20043;-69
2021/12/17 11:57:10;;;;;;;5.75;1.63;;;20.70;48.60;;;;;;6272472;28;20033;-70
2021/12/17 12:00:15;;;;;;;2.58;1.45;;;20.80;48.70;;;;;;6254896;28;20021;-69
2021/12/17 12:03:24;;;;;;;2.55;1.60;;;20.70;48.60;;;;;;6249794;28;20018;-70
2021/12/17 12:06:34;;;;;;;3.72;1.73;;;20.70;48.60;;;;;;6247690;28;20446;-69
2021/12/17 12:10:09;;;;;;;2.20;1.73;;;20.70;48.60;;;;;;6266314;28;20032;-70
2021/12/17 12:13:10;;;;;;;2.13;1.40;;;20.70;48.70;;;;;;6264678;28;20017;-69
2021/12/17 12:16:15;;;;;;;2.78;1.50;;;20.70;48.60;;;;;;6265364;28;20055;-68
2021/12/17 12:19:15;;;;;;;2.38;1.58;;;20.70;48.60;;;;;;6258657;28;20051;-67
2021/12/17 12:22:30;;;;;;;3.00;1.70;;;20.70;48.70;;;;;;6272975;28;20028;-67
2021/12/17 12:25:30;;;;;;;2.80;1.50;;;20.70;48.70;;;;;;6235375;28;20049;-67
2021/12/17 12:31:50;;;;;;;2.55;1.40;;;20.70;48.70;;;;;;6265551;28;20482;-69
2021/12/17 12:35:05;;;;;;;2.20;1.40;;;20.70;48.70;;;;;;6268618;28;20083;-70
2021/12/17 12:38:22;;;;;;;2.53;1.63;;;20.70;48.70;;;;;;6271245;28;20025;-69
2021/12/17 12:41:27;;;;;;;2.17;1.30;;;20.70;48.70;;;;;;6270496;28;20478;-69
2021/12/17 12:44:42;;;;;;;3.33;1.65;;;20.70;48.70;;;;;;6270343;28;20278;-69
2021/12/17 12:47:50;;;;;;;5.45;1.70;;;20.70;48.70;;;;;;6271252;28;20389;-70
2021/12/17 12:51:18;;;;;;;2.13;1.42;;;20.80;48.80;;;;;;6271703;28;20064;-70
2021/12/17 12:54:22;;;;;;;3.38;1.50;;;20.80;48.80;;;;;;6271491;28;20029;-69
2021/12/17 12:57:30;;;;;;;2.88;1.40;;;20.70;48.70;;;;;;6270630;28;20115;-69
2021/12/17 13:00:40;;;;;;;1.70;1.10;;;20.70;48.70;;;;;;6271285;28;20075;-70
2021/12/17 13:03:42;;;;;;;2.55;1.50;;;20.70;48.80;;;;;;6266039;28;20017;-69
2021/12/17 13:06:48;;;;;;;2.85;1.60;;;20.70;48.80;;;;;;6248468;28;20443;-69
2021/12/17 13:09:48;;;;;;;3.22;1.50;;;20.70;48.80;;;;;;6271625;28;20032;-69
2021/12/17 13:13:03;;;;;;;3.35;1.50;;;20.70;48.80;;;;;;6270987;28;20022;-68
2021/12/17 13:16:19;;;;;;;1.42;1.17;;;20.80;48.90;;;;;;6271077;28;20565;-69
2021/12/17 13:22:55;;;;;;;2.63;1.50;;;20.80;48.80;;;;;;6246423;28;20399;-69
2021/12/17 13:26:08;;;;;;;2.25;1.50;;;20.70;48.80;;;;;;6267126;28;20033;-66
2021/12/17 13:29:16;;;;;;;2.78;1.25;;;20.80;48.80;;;;;;6270655;28;20095;-66
2021/12/17 13:32:17;;;;;;;2.13;1.10;;;20.70;48.80;;;;;;6260001;28;20100;-64
2021/12/17 13:35:18;;;;;;;1.85;1.30;;;20.80;48.80;;;;;;6269846;28;20021;-64
2021/12/17 13:38:18;;;;;;;2.42;1.30;;;20.70;48.80;;;;;;6269593;28;20021;-64
2021/12/17 13:41:21;;;;;;;2.50;1.20;;;20.80;48.90;;;;;;6270169;28;20072;-64
2021/12/17 13:44:32;;;;;;;1.83;1.25;;;20.80;48.90;;;;;;6270382;28;20486;-64
2021/12/17 13:47:46;;;;;;;2.58;1.48;;;20.80;48.90;;;;;;6269852;28;20032;-66
2021/12/17 13:50:50;;;;;;;1.70;1.05;;;20.80;48.90;;;;;;6270068;28;20024;-66
2021/12/17 13:53:52;;;;;;;1.85;1.42;;;20.70;48.80;;;;;;6269791;28;20033;-65
2021/12/17 13:57:02;;;;;;;2.83;1.30;;;20.80;48.90;;;;;;6269905;28;20025;-66
2021/12/17 14:00:07;;;;;;;3.50;1.33;;;20.80;48.90;;;;;;6269121;28;20036;-66
2021/12/17 14:03:13;;;;;;;2.88;1.48;;;20.80;48.90;;;;;;6262643;28;20481;-66
2021/12/17 14:06:23;;;;;;;2.28;1.50;;;20.80;48.90;;;;;;6244912;28;20040;-66
2021/12/17 14:09:23;;;;;;;1.38;0.98;;;20.80;49.60;;;;;;6252381;28;20082;-66
2021/12/17 14:12:29;;;;;;;3.78;1.73;;;20.80;48.90;;;;;;6248630;28;20033;-66
2021/12/17 14:15:33;;;;;;;6.00;1.48;;;20.80;48.90;;;;;;6258769;28;20206;-66
2021/12/17 14:18:34;;;;;;;4.80;1.65;;;20.70;48.90;;;;;;6260598;28;20037;-66
2021/12/17 14:21:36;;;;;;;9.93;1.90;;;20.70;48.20;;;;;;6242491;28;20453;-66
2021/12/17 14:24:37;;;;;;;6.93;2.20;;;20.70;47.00;;;;;;6261490;28;20025;-63
2021/12/17 14:27:45;;;;;;;5.28;2.35;;;20.70;46.00;;;;;;6253524;28;20083;-66
2021/12/17 14:31:09;;;;;;;6.22;1.63;;;20.70;45.90;;;;;;6243643;28;20104;-66
2021/12/17 14:34:15;;;;;;;7.47;2.38;;;20.70;46.70;;;;;;6247534;28;20099;-66
2021/12/17 14:37:16;;;;;;;9.80;2.45;;;20.70;47.40;;;;;;6254590;28;20029;-68
2021/12/17 14:40:34;;;;;;;5.55;2.22;;;20.70;47.80;;;;;;6266458;28;20021;-68
2021/12/17 14:43:50;;;;;;;7.93;2.67;;;20.70;48.10;;;;;;6257139;28;20481;-69
2021/12/17 15:03:22;;;;;;;8.18;2.65;;;20.70;45.00;;;;;;6270056;28;20029;-66
2021/12/17 15:06:22;;;;;;;9.80;2.55;;;20.70;45.90;;;;;;6246988;28;20364;-67
2021/12/17 15:09:23;;;;;;;7.82;2.20;;;20.70;46.40;;;;;;6257370;28;20029;-68
2021/12/17 15:12:37;;;;;;;13.70;2.97;;;20.70;46.20;;;;;;6266779;28;20025;-67
2021/12/17 15:15:39;;;;;;;7.53;2.38;;;20.70;46.00;;;;;;6267275;28;20043;-67
2021/12/17 15:18:42;;;;;;;7.72;2.30;;;20.60;45.60;;;;;;6258131;28;20025;-68
2021/12/17 15:21:43;;;;;;;8.55;1.98;;;20.70;45.90;;;;;;6271869;28;20063;-68
2021/12/17 15:24:43;;;;;;;6.65;2.15;;;20.70;46.00;;;;;;6248133;28;20017;-69
2021/12/17 15:27:44;;;;;;;10.88;2.05;;;20.70;46.30;;;;;;6252238;28;20021;-69
2021/12/17 15:30:49;;;;;;;8.77;2.35;;;20.60;45.50;;;;;;6254216;28;20052;-66
2021/12/17 15:33:49;;;;;;;8.98;1.80;;;20.60;44.60;;;;;;6252724;28;20096;-65
2021/12/17 15:36:50;;;;;;;5.82;2.08;;;20.60;44.80;;;;;;6245557;28;20033;-64
2021/12/17 15:39:51;;;;;;;7.18;1.95;;;20.60;44.60;;;;;;6265200;28;20024;-66
2021/12/17 15:42:53;;;;;;;8.80;2.35;;;20.60;44.00;;;;;;6254091;28;20045;-66
2021/12/17 15:45:54;;;;;;;5.78;2.10;;;20.60;43.60;;;;;;6271138;28;20024;-68
2021/12/17 15:48:54;;;;;;;5.95;1.92;;;20.60;44.90;;;;;;6266400;28;20029;-68
2021/12/17 15:51:55;;;;;;;8.82;2.58;;;20.60;44.70;;;;;;6250149;28;20032;-70
2021/12/17 15:54:55;;;;;;;7.72;2.05;;;20.60;44.50;;;;;;6254357;28;20499;-69
2021/12/17 15:57:57;;;;;;;7.50;2.15;;;20.60;44.10;;;;;;6258472;28;20036;-70
2021/12/17 16:00:58;;;;;;;11.27;2.35;;;20.60;43.70;;;;;;6268842;28;20023;-68
2021/12/17 16:03:58;;;;;;;6.43;1.90;;;20.60;43.30;;;;;;6254972;28;20021;-70
2021/12/17 16:07:00;;;;;;;11.18;2.50;;;20.60;43.50;;;;;;6250665;28;20025;-68
2021/12/17 16:23:12;;;;;;;4.25;1.80;;;20.60;45.20;;;;;;6265118;28;20018;-70
2021/12/17 16:26:14;;;;;;;3.83;1.63;;;20.70;45.40;;;;;;6254882;28;20422;-70
2021/12/17 16:29:18;;;;;;;5.80;2.03;;;20.70;45.50;;;;;;6250522;28;20553;-72
2021/12/17 16:32:19;;;;;;;6.80;1.85;;;20.70;45.60;;;;;;6254087;28;20095;-69
2021/12/17 16:35:19;;;;;;;3.95;1.45;;;20.70;45.60;;;;;;6270005;28;20044;-72
2021/12/17 16:38:22;;;;;;;7.50;1.80;;;20.70;45.60;;;;;;6248920;28;20025;-71
2021/12/17 16:41:24;;;;;;;4.45;1.73;;;20.70;45.80;;;;;;6261131;28;20036;-71
2021/12/17 16:44:40;;;;;;;5.93;1.45;;;20.70;45.80;;;;;;6263753;28;20029;-71
2021/12/17 16:47:42;;;;;;;6.00;1.42;;;20.70;45.90;;;;;;6246703;28;20084;-69
2021/12/17 16:50:42;;;;;;;6.00;2.28;;;20.70;46.00;;;;;;6263933;28;20068;-69
2021/12/17 16:53:44;;;;;;;11.57;2.53;;;20.70;46.00;;;;;;6255811;28;20028;-71
2021/12/17 16:56:45;;;;;;;7.18;2.55;;;20.70;46.10;;;;;;6263557;28;20021;-69
2021/12/17 16:59:46;;;;;;;8.38;2.67;;;20.70;46.20;;;;;;6269938;28;20106;-68
2021/12/17 17:02:47;;;;;;;6.80;2.15;;;20.70;46.40;;;;;;6264099;28;20342;-67
2021/12/17 17:05:49;;;;;;;7.25;3.05;;;20.70;46.40;;;;;;6266671;28;20051;-69
2021/12/17 17:08:49;;;;;;;6.50;2.97;;;20.70;46.50;;;;;;6262179;28;20425;-70
2021/12/17 17:11:51;;;;;;;8.48;3.38;;;20.70;46.60;;;;;;6266557;28;20032;-68
2021/12/17 17:14:52;;;;;;;9.88;3.03;;;20.70;46.70;;;;;;6244838;28;20060;-68
2021/12/17 17:17:53;;;;;;;6.32;2.80;;;20.70;46.70;;;;;;6256213;28;20036;-68
2021/12/17 17:20:55;;;;;;;8.27;2.63;;;20.70;46.80;;;;;;6246343;28;20033;-68
2021/12/17 17:23:57;;;;;;;7.38;3.03;;;20.70;46.90;;;;;;6246607;28;20541;-67
2021/12/17 17:26:58;;;;;;;6.85;2.63;;;20.70;47.00;;;;;;6250782;28;20014;-68
2021/12/17 17:29:59;;;;;;;7.05;2.75;;;20.70;47.00;;;;;;6242128;28;20025;-67
2021/12/17 17:33:00;;;;;;;6.40;2.25;;;20.70;47.10;;;;;;6249917;28;20060;-66
2021/12/17 17:36:01;;;;;;;4.82;2.47;;;20.70;47.10;;;;;;6266473;28;20021;-68
2021/12/17 17:39:03;;;;;;;6.97;2.30;;;20.70;47.10;;;;;;6260288;28;20028;-67
2021/12/17 17:42:04;;;;;;;6.53;2.78;;;20.80;47.30;;;;;;6262240;28;20021;-68
2021/12/17 17:45:06;;;;;;;10.50;2.38;;;20.80;47.30;;;;;;6265877;28;20581;-68
2021/12/17 17:48:10;;;;;;;8.63;2.63;;;20.80;47.30;;;;;;6254243;28;20047;-69
2021/12/17 17:51:10;;;;;;;6.30;2.40;;;20.80;47.30;;;;;;6242064;28;20025;-69
2021/12/17 17:54:11;;;;;;;4.78;2.03;;;20.80;47.40;;;;;;6250354;28;20084;-69
2021/12/17 17:57:12;;;;;;;5.53;2.03;;;20.80;47.40;;;;;;6241037;28;20038;-70
2021/12/17 18:00:13;;;;;;;4.63;2.25;;;20.70;47.40;;;;;;6262902;28;20020;-70
2021/12/17 18:03:14;;;;;;;6.05;2.70;;;20.80;47.50;;;;;;6241679;28;20559;-70
2021/12/17 18:06:14;;;;;;;6.22;2.28;;;20.80;47.50;;;;;;6240201;28;20546;-69
2021/12/17 18:09:15;;;;;;;7.25;2.38;;;20.80;47.60;;;;;;6257947;28;20017;-69
2021/12/17 18:12:15;;;;;;;4.57;2.28;;;20.80;47.60;;;;;;6241906;28;20048;-71
2021/12/17 18:15:17;;;;;;;8.05;2.10;;;20.80;47.70;;;;;;6265444;28;20061;-72
2021/12/17 18:18:19;;;;;;;4.38;1.98;;;20.80;47.70;;;;;;6254886;28;20436;-73
2021/12/17 18:21:20;;;;;;;3.88;1.60;;;20.80;47.80;;;;;;6247631;28;20502;-71
2021/12/17 18:24:20;;;;;;;2.50;1.70;;;20.80;47.80;;;;;;6260352;28;20017;-69
2021/12/17 18:27:21;;;;;;;8.30;1.98;;;20.80;47.80;;;;;;6264819;28;20021;-70
2021/12/17 18:30:21;;;;;;;5.47;2.20;;;20.80;47.80;;;;;;6260891;28;20104;-71
2021/12/17 18:33:22;;;;;;;5.15;1.80;;;20.80;47.80;;;;;;6257566;28;20028;-68
2021/12/17 18:36:23;;;;;;;3.42;1.77;;;20.80;47.90;;;;;;6253443;28;20081;-69
2021/12/17 18:39:23;;;;;;;3.60;1.80;;;20.80;47.90;;;;;;6265483;28;20486;-67
2021/12/17 18:45:45;;;;;;;4.45;1.85;;;20.80;48.60;;;;;;6264849;28;20336;-66
2021/12/17 18:48:46;;;;;;;6.07;1.70;;;20.80;47.90;;;;;;6258357;28;20025;-67
2021/12/17 18:51:47;;;;;;;4.57;1.85;;;20.80;47.90;;;;;;6261614;28;20459;-66
2021/12/17 18:54:48;;;;;;;3.67;1.73;;;20.80;48.00;;;;;;6254905;28;20394;-67
2021/12/17 18:57:48;;;;;;;5.35;2.15;;;20.80;48.00;;;;;;6251815;28;20029;-67
2021/12/17 19:00:51;;;;;;;4.28;2.17;;;20.80;48.00;;;;;;6265422;28;20021;-67
2021/12/17 19:03:51;;;;;;;2.45;1.40;;;20.80;48.00;;;;;;6263280;28;20425;-67
2021/12/17 19:06:52;;;;;;;6.85;1.90;;;20.80;48.00;;;;;;6257465;28;20041;-67
2021/12/17 19:09:53;;;;;;;4.28;2.00;;;20.80;48.10;;;;;;6263284;28;20055;-67
2021/12/17 19:12:54;;;;;;;3.63;1.70;;;20.80;48.10;;;;;;6254249;28;20509;-68